Time;durP1;ratioP1;P1;durP2;ratioP2;P2;SDS_P1;SDS_P2;PMS_P1;PMS_P2;Temp;Humidity;BMP_temperature;BMP_pressure;BME280_temperature;BME280_humidity;BME280_pressure;Samples;Min_cycle;Max_cycle;Signal;HPM_P1;HPM_P2
2021/04/17 00:02:30;;;;;;;9.13;2.40;;;;;;;-146.18;100.00;67994.34;9995134;29;20050;-68
2021/04/17 00:07:26;;;;;;;8.70;2.83;;;;;;;-146.18;100.00;67994.34;9983312;29;20658;-68
2021/04/17 00:12:22;;;;;;;8.55;3.58;;;;;;;-146.18;100.00;67994.34;9994170;29;20099;-67
2021/04/17 00:17:20;;;;;;;10.70;3.30;;;;;;;-146.18;100.00;67994.34;9989232;29;20067;-67
2021/04/17 00:22:16;;;;;;;8.68;3.20;;;;;;;-146.18;100.00;67994.34;9992925;29;20051;-67
2021/04/17 00:27:12;;;;;;;10.02;3.33;;;;;;;-146.18;100.00;67994.34;9991685;29;20618;-67
2021/04/17 00:32:09;;;;;;;9.38;3.08;;;;;;;-146.18;100.00;67994.34;9991955;29;20058;-67
2021/04/17 00:37:05;;;;;;;8.95;3.30;;;;;;;-146.18;100.00;67994.34;9995881;29;20076;-68
2021/04/17 00:42:01;;;;;;;10.50;2.90;;;;;;;-146.18;100.00;67994.34;9984159;29;20084;-67
2021/04/17 00:46:57;;;;;;;11.95;3.30;;;;;;;-146.18;100.00;67994.34;9998578;29;20044;-67
2021/04/17 00:51:54;;;;;;;9.32;3.00;;;;;;;-146.18;100.00;67994.34;9994420;29;20147;-67
2021/04/17 00:56:50;;;;;;;8.85;2.67;;;;;;;-146.18;100.00;67994.34;9989026;29;20633;-67
2021/04/17 01:01:47;;;;;;;5.78;2.83;;;;;;;-146.18;100.00;67994.34;10001882;29;20056;-66
2021/04/17 01:07:26;;;;;;;7.05;2.85;;;;;;;-146.18;100.00;67994.34;9986524;29;20052;-69
2021/04/17 01:12:26;;;;;;;8.02;2.72;;;;;;;-146.18;100.00;67994.34;9987294;29;20044;-66
2021/04/17 01:17:24;;;;;;;9.65;2.92;;;;;;;-146.18;100.00;67994.34;9996693;29;20499;-67
2021/04/17 01:22:23;;;;;;;10.35;2.67;;;;;;;-146.18;100.00;67994.34;9987223;29;20463;-68
2021/04/17 01:27:19;;;;;;;6.57;2.60;;;;;;;-146.18;100.00;67994.34;9996449;29;20041;-68
2021/04/17 01:32:16;;;;;;;12.02;3.28;;;;;;;-146.18;100.00;67994.34;9995047;29;20104;-68
2021/04/17 01:37:13;;;;;;;8.82;3.20;;;;;;;-146.18;100.00;67994.34;9993885;29;20148;-67
2021/04/17 01:42:14;;;;;;;9.40;3.15;;;;;;;-146.18;100.00;67994.34;9990886;29;20047;-68
2021/04/17 01:47:13;;;;;;;10.88;2.67;;;;;;;-146.18;100.00;67994.34;9999787;29;20096;-66
2021/04/17 01:52:14;;;;;;;8.43;2.47;;;;;;;-146.18;100.00;67994.34;9989624;29;20052;-66
2021/04/17 01:57:17;;;;;;;8.00;2.47;;;;;;;-146.18;100.00;67994.34;9991242;29;20486;-68
2021/04/17 02:02:14;;;;;;;6.53;2.42;;;;;;;-146.18;100.00;67994.34;9993401;29;20048;-67
2021/04/17 02:07:10;;;;;;;7.30;2.58;;;;;;;-146.18;100.00;67994.34;9995990;29;20143;-67
2021/04/17 02:12:07;;;;;;;7.03;2.55;;;;;;;-146.18;100.00;67994.34;9992043;29;20123;-67
2021/04/17 02:17:23;;;;;;;6.22;2.63;;;;;;;-146.18;100.00;67994.34;9996739;29;20425;-67
2021/04/17 02:22:21;;;;;;;8.40;2.47;;;;;;;-146.18;100.00;67994.34;9998009;29;20528;-67
2021/04/17 02:27:18;;;;;;;8.65;2.40;;;;;;;-146.18;100.00;67994.34;9999820;29;20131;-67
2021/04/17 02:32:15;;;;;;;7.13;2.78;;;;;;;-146.18;100.00;67994.34;9984987;29;20776;-68
2021/04/17 02:37:12;;;;;;;6.32;2.83;;;;;;;-146.18;100.00;67994.34;9993845;29;20055;-69
2021/04/17 02:42:10;;;;;;;6.93;2.20;;;;;;;-146.18;100.00;67994.34;9996555;29;20434;-68
2021/04/17 02:47:06;;;;;;;6.63;2.17;;;;;;;-146.18;100.00;67994.34;9992299;29;20064;-68
2021/04/17 02:52:02;;;;;;;10.05;3.25;;;;;;;-146.18;100.00;67994.34;9987678;29;20056;-67
2021/04/17 02:56:58;;;;;;;7.45;2.53;;;;;;;-146.18;100.00;67994.34;9988825;29;20126;-68
2021/04/17 03:01:54;;;;;;;6.80;2.22;;;;;;;-146.18;100.00;67994.34;10004872;29;20080;-69
2021/04/17 03:06:50;;;;;;;8.65;2.17;;;;;;;-146.18;100.00;67994.34;9988144;29;20055;-68
2021/04/17 03:11:46;;;;;;;5.78;2.10;;;;;;;-146.18;100.00;67994.34;9988743;29;20040;-68
2021/04/17 03:16:42;;;;;;;7.28;2.60;;;;;;;-146.18;100.00;67994.34;9995781;29;20048;-68
2021/04/17 03:21:39;;;;;;;9.73;2.78;;;;;;;-146.18;100.00;67994.34;9991275;29;20048;-67
2021/04/17 03:26:35;;;;;;;9.05;2.97;;;;;;;-146.18;100.00;67994.34;9987832;29;20047;-67
2021/04/17 03:31:31;;;;;;;8.05;2.70;;;;;;;-146.18;100.00;67994.34;9995027;29;20048;-68
2021/04/17 03:36:27;;;;;;;6.78;3.00;;;;;;;-146.18;100.00;67994.34;9982766;29;20047;-67
2021/04/17 03:41:23;;;;;;;8.98;3.67;;;;;;;-146.18;100.00;67994.34;9991169;29;20067;-67
2021/04/17 03:46:19;;;;;;;7.97;2.83;;;;;;;-146.18;100.00;67994.34;9995956;29;20418;-67
2021/04/17 03:51:16;;;;;;;7.32;2.78;;;;;;;-146.18;100.00;67994.34;9989692;29;20565;-68
2021/04/17 03:56:12;;;;;;;10.25;3.00;;;;;;;-146.18;100.00;67994.34;9990578;29;20072;-68
2021/04/17 04:01:09;;;;;;;7.38;3.13;;;;;;;-146.18;100.00;67994.34;9987519;29;20111;-68
2021/04/17 04:06:05;;;;;;;10.52;3.13;;;;;;;-146.18;100.00;67994.34;9989926;29;20059;-68
2021/04/17 04:11:01;;;;;;;9.02;3.05;;;;;;;-146.18;100.00;67994.34;9997101;29;20818;-67
2021/04/17 04:15:57;;;;;;;10.05;3.03;;;;;;;-146.18;100.00;67994.34;9993562;29;20092;-69
2021/04/17 04:20:53;;;;;;;11.90;3.22;;;;;;;-146.18;100.00;67994.34;9992515;29;20047;-67
2021/04/17 04:25:49;;;;;;;9.15;3.35;;;;;;;-146.18;100.00;67994.34;9985553;29;20052;-66
2021/04/17 04:30:45;;;;;;;12.60;3.65;;;;;;;-146.18;100.00;67994.34;9996848;29;20514;-66
2021/04/17 04:35:41;;;;;;;8.13;3.05;;;;;;;-146.18;100.00;67994.34;9987230;29;20115;-66
2021/04/17 04:40:37;;;;;;;7.70;3.47;;;;;;;-146.18;100.00;67994.34;9985595;29;20059;-65
2021/04/17 04:45:33;;;;;;;8.73;4.30;;;;;;;-146.18;100.00;67994.34;10002221;29;20052;-65
2021/04/17 04:50:29;;;;;;;6.07;2.78;;;;;;;-146.18;100.00;67994.34;9991107;29;20048;-66
2021/04/17 04:55:25;;;;;;;11.70;3.30;;;;;;;-146.18;100.00;67994.34;9986638;29;20100;-67
2021/04/17 05:00:24;;;;;;;6.80;2.83;;;;;;;-146.18;100.00;67994.34;9988317;29;20410;-65
2021/04/17 05:05:20;;;;;;;7.95;3.55;;;;;;;-146.18;100.00;67994.34;9983911;29;20084;-66
2021/04/17 05:10:16;;;;;;;6.65;2.75;;;;;;;-146.18;100.00;67994.34;9992469;29;20044;-66
2021/04/17 05:15:12;;;;;;;5.15;2.67;;;;;;;-146.18;100.00;67994.34;9986188;29;20499;-67
2021/04/17 05:20:09;;;;;;;7.70;2.88;;;;;;;-146.18;100.00;67994.34;9992941;29;20107;-66
2021/04/17 05:25:06;;;;;;;8.48;3.55;;;;;;;-146.18;100.00;67994.34;9994501;29;20108;-67
2021/04/17 05:30:03;;;;;;;12.15;3.75;;;;;;;-146.18;100.00;67994.34;9990714;29;20060;-66
2021/04/17 05:34:59;;;;;;;7.63;2.85;;;;;;;-146.18;100.00;67994.34;9978530;29;20060;-67
2021/04/17 05:39:55;;;;;;;7.90;3.05;;;;;;;-146.18;100.00;67994.34;9988851;29;20225;-68
2021/04/17 05:44:51;;;;;;;7.35;2.97;;;;;;;-146.18;100.00;67994.34;9994542;29;20071;-67
2021/04/17 05:49:47;;;;;;;7.85;3.22;;;;;;;-146.18;100.00;67994.34;9990403;29;20047;-67
2021/04/17 05:54:43;;;;;;;9.20;3.10;;;;;;;-146.18;100.00;67994.34;9986712;29;20052;-67
2021/04/17 05:59:39;;;;;;;6.70;3.03;;;;;;;-146.18;100.00;67994.34;9987274;29;20080;-66
2021/04/17 06:04:35;;;;;;;12.65;3.80;;;;;;;-146.18;100.00;67994.34;9994632;29;20047;-68
2021/04/17 06:09:31;;;;;;;8.65;3.58;;;;;;;-146.18;100.00;67994.34;9987615;29;20070;-66
2021/04/17 06:14:27;;;;;;;9.77;3.40;;;;;;;-146.18;100.00;67994.34;9994145;29;20143;-67
2021/04/17 06:19:23;;;;;;;7.85;3.22;;;;;;;-146.18;100.00;67994.34;9992462;29;20099;-67
2021/04/17 06:24:19;;;;;;;7.63;3.10;;;;;;;-146.18;100.00;67994.34;9983956;29;20541;-66
2021/04/17 06:29:16;;;;;;;8.30;3.00;;;;;;;-146.18;100.00;67994.34;9987936;29;20063;-67
2021/04/17 06:34:12;;;;;;;7.40;2.88;;;;;;;-146.18;100.00;67994.34;9992690;29;20056;-67
2021/04/17 06:39:09;;;;;;;11.10;3.53;;;;;;;-146.18;100.00;67994.34;9993275;29;20048;-68
2021/04/17 06:44:06;;;;;;;11.00;2.90;;;;;;;-146.18;100.00;67994.34;9992045;29;20518;-68
2021/04/17 06:49:05;;;;;;;9.70;3.28;;;;;;;-146.18;100.00;67994.34;9997545;29;20099;-69
2021/04/17 06:54:01;;;;;;;7.78;2.95;;;;;;;-146.18;100.00;67994.34;9995654;29;20052;-67
2021/04/17 06:58:57;;;;;;;9.20;3.05;;;;;;;-146.18;100.00;67994.34;9993625;29;20511;-67
2021/04/17 07:03:53;;;;;;;8.88;2.83;;;;;;;-146.18;100.00;67994.34;9992613;29;20048;-68
2021/04/17 07:08:49;;;;;;;8.68;3.15;;;;;;;-146.18;100.00;67994.34;9990718;29;20437;-67
2021/04/17 07:14:05;;;;;;;8.18;3.00;;;;;;;-146.18;100.00;67994.34;9994435;29;20126;-66
2021/04/17 07:19:01;;;;;;;10.38;2.50;;;;;;;-146.18;100.00;67994.34;9991625;29;20052;-68
2021/04/17 07:23:57;;;;;;;15.00;3.47;;;;;;;-146.18;100.00;67994.34;9998205;29;20418;-67
2021/04/17 07:29:00;;;;;;;8.90;2.83;;;;;;;-146.18;100.00;67994.34;9990066;29;20107;-68
2021/04/17 07:34:10;;;;;;;8.40;2.95;;;;;;;-146.18;100.00;67994.34;9987909;29;20048;-68
2021/04/17 07:39:25;;;;;;;6.78;2.78;;;;;;;-146.18;100.00;67994.34;9983284;29;20411;-68
2021/04/17 07:44:30;;;;;;;8.80;3.05;;;;;;;-146.18;100.00;67994.34;9995266;29;20075;-66
2021/04/17 07:49:26;;;;;;;14.05;6.35;;;;;;;-146.18;100.00;67994.34;9995452;29;20116;-69
2021/04/17 07:54:24;;;;;;;10.48;3.70;;;;;;;-146.18;100.00;67994.34;9983685;29;20188;-68
2021/04/17 07:59:22;;;;;;;8.40;3.28;;;;;;;-146.18;100.00;67994.34;9992315;29;20044;-68
2021/04/17 08:04:26;;;;;;;9.32;3.65;;;;;;;-146.18;100.00;67994.34;9992016;29;20459;-68
2021/04/17 08:09:23;;;;;;;15.18;3.55;;;;;;;-146.18;100.00;67994.34;9987131;29;20455;-67
2021/04/17 08:14:23;;;;;;;5.38;2.60;;;;;;;-146.18;100.00;67994.34;9989142;29;20044;-68
2021/04/17 08:19:19;;;;;;;5.80;2.30;;;;;;;-146.18;100.00;67994.34;9994951;29;20414;-67
2021/04/17 08:24:24;;;;;;;8.43;2.45;;;;;;;-146.18;100.00;67994.34;9991545;29;20048;-68
2021/04/17 08:29:42;;;;;;;6.20;1.90;;;;;;;-146.18;100.00;67994.34;9981546;29;20345;-66
2021/04/17 08:34:56;;;;;;;5.35;2.03;;;;;;;-146.18;100.00;67994.34;9979830;29;20124;-68
2021/04/17 08:39:54;;;;;;;6.47;1.90;;;;;;;-146.18;100.00;67994.34;9989301;29;20510;-69
2021/04/17 08:44:51;;;;;;;5.65;1.85;;;;;;;-146.18;100.00;67994.34;9992513;29;20059;-67
2021/04/17 08:49:47;;;;;;;6.45;1.70;;;;;;;-146.18;100.00;67994.34;10004780;29;20051;-70
2021/04/17 08:54:43;;;;;;;5.00;1.83;;;;;;;-146.18;100.00;67994.34;9984348;29;20040;-68
2021/04/17 08:59:40;;;;;;;6.40;1.50;;;;;;;-146.18;100.00;67994.34;9994091;29;20052;-68
2021/04/17 09:05:06;;;;;;;9.13;2.38;;;;;;;-146.18;100.00;67994.34;9983899;29;20055;-67
2021/04/17 09:10:23;;;;;;;5.30;1.65;;;;;;;-146.18;100.00;67994.34;9988462;29;20431;-66
2021/04/17 09:15:20;;;;;;;5.55;1.90;;;;;;;-146.18;100.00;67994.34;9999890;29;20052;-67
2021/04/17 09:20:33;;;;;;;5.95;1.50;;;;;;;-146.18;100.00;67994.34;9991226;29;20135;-67
2021/04/17 09:25:36;;;;;;;4.50;1.50;;;;;;;-146.18;100.00;67994.34;9995574;29;20096;-68
2021/04/17 09:30:33;;;;;;;;;;;;;;;-146.18;100.00;67994.34;10000303;29;20127;-67
2021/04/17 09:35:38;;;;;;;4.82;1.45;;;;;;;-146.18;100.00;67994.34;9993445;29;20017;-73
2021/04/17 09:40:43;;;;;;;3.53;1.40;;;;;;;-146.18;100.00;67994.34;10016185;29;20827;-67
2021/04/17 09:45:39;;;;;;;6.53;1.20;;;;;;;-146.18;100.00;67994.34;9990335;29;20044;-66
2021/04/17 09:50:37;;;;;;;5.05;1.40;;;;;;;-146.18;100.00;67994.34;10001682;29;20043;-65
2021/04/17 09:55:47;;;;;;;4.97;1.40;;;;;;;-146.18;100.00;67994.34;10001329;29;20071;-67
2021/04/17 10:00:43;;;;;;;7.88;2.70;;;;;;;-146.18;100.00;67994.34;9998408;29;20096;-67
2021/04/17 10:05:39;;;;;;;4.85;1.50;;;;;;;-146.18;100.00;67994.34;9989242;29;20100;-65
2021/04/17 10:10:36;;;;;;;4.78;1.50;;;;;;;-146.18;100.00;67994.34;10000392;29;20121;-67
2021/04/17 10:15:34;;;;;;;4.00;1.73;;;;;;;-146.18;100.00;67994.34;9998697;29;20888;-69
2021/04/17 10:20:32;;;;;;;4.50;1.73;;;;;;;-146.18;100.00;67994.34;9996554;29;20089;-69
2021/04/17 10:25:43;;;;;;;3.83;1.40;;;;;;;-146.18;100.00;67994.34;10004942;29;20119;-67
2021/04/17 10:30:47;;;;;;;8.93;1.80;;;;;;;-146.18;100.00;67994.34;10006968;29;20055;-67
2021/04/17 10:35:46;;;;;;;4.55;2.10;;;;;;;-146.18;100.00;67994.34;10000434;29;20467;-69
2021/04/17 10:40:45;;;;;;;6.60;1.67;;;;;;;-146.18;100.00;67994.34;10012006;29;20075;-69
2021/04/17 10:45:42;;;;;;;4.70;1.80;;;;;;;-146.18;100.00;67994.34;9998613;29;20602;-68
2021/04/17 10:50:54;;;;;;;6.82;1.83;;;;;;;-146.18;100.00;67994.34;9996925;29;20574;-69
2021/04/17 10:55:53;;;;;;;4.30;1.80;;;;;;;-146.18;100.00;67994.34;9991779;29;20052;-69
2021/04/17 11:00:56;;;;;;;4.30;1.00;;;;;;;-146.18;100.00;67994.34;10008742;29;20044;-68
2021/04/17 11:05:52;;;;;;;4.40;1.60;;;;;;;-146.18;100.00;67994.34;10001890;29;20166;-69
2021/04/17 11:10:48;;;;;;;3.80;1.40;;;;;;;-146.18;100.00;67994.34;9986391;29;20075;-70
2021/04/17 11:15:45;;;;;;;6.05;1.83;;;;;;;-146.18;100.00;67994.34;9983171;29;20079;-69
2021/04/17 11:20:49;;;;;;;5.25;1.20;;;;;;;-146.18;100.00;67994.34;9993718;29;20425;-70
2021/04/17 11:25:45;;;;;;;6.47;1.30;;;;;;;-146.18;100.00;67994.34;9989923;29;20048;-70
2021/04/17 11:30:41;;;;;;;4.78;1.30;;;;;;;-146.18;100.00;67994.34;9995805;29;20071;-70
2021/04/17 11:35:37;;;;;;;5.47;1.50;;;;;;;-146.18;100.00;67994.34;9995516;29;20079;-71
2021/04/17 11:40:34;;;;;;;8.80;1.48;;;;;;;-146.18;100.00;67994.34;9994503;29;20100;-72
2021/04/17 11:45:30;;;;;;;3.60;1.20;;;;;;;-146.18;100.00;67994.34;9999319;29;20052;-70
2021/04/17 11:50:26;;;;;;;4.93;1.38;;;;;;;-146.18;100.00;67994.34;10005297;29;20454;-71
2021/04/17 11:55:23;;;;;;;5.07;1.50;;;;;;;-146.18;100.00;67994.34;10001239;29;20052;-67
2021/04/17 12:00:20;;;;;;;4.80;1.40;;;;;;;-146.18;100.00;67994.34;9992394;29;20044;-67
2021/04/17 12:05:16;;;;;;;3.85;1.63;;;;;;;-146.18;100.00;67994.34;9983473;29;20401;-67
2021/04/17 12:10:13;;;;;;;4.10;1.40;;;;;;;-146.18;100.00;67994.34;9992371;29;20079;-66
2021/04/17 12:15:10;;;;;;;2.85;1.02;;;;;;;-146.18;100.00;67994.34;9989545;29;20532;-70
2021/04/17 12:20:07;;;;;;;8.70;2.20;;;;;;;-146.18;100.00;67994.34;9988930;29;20103;-66
2021/04/17 12:25:08;;;;;;;3.80;1.15;;;;;;;-146.18;100.00;67994.34;9999663;29;20181;-66
2021/04/17 12:30:07;;;;;;;5.68;1.38;;;;;;;-146.18;100.00;67994.34;9993872;29;20051;-69
2021/04/17 12:35:05;;;;;;;4.93;1.60;;;;;;;-146.18;100.00;67994.34;9990551;29;20048;-65
2021/04/17 12:40:03;;;;;;;7.15;2.08;;;;;;;-146.18;100.00;67994.34;9987084;29;20491;-65
2021/04/17 12:44:59;;;;;;;3.95;1.55;;;;;;;-146.18;100.00;67994.34;9990584;29;20052;-64
2021/04/17 12:49:55;;;;;;;6.13;1.52;;;;;;;-146.18;100.00;67994.34;9986550;29;20056;-65
2021/04/17 12:54:51;;;;;;;6.47;1.45;;;;;;;-146.18;100.00;67994.34;9993828;29;20411;-65
2021/04/17 12:59:47;;;;;;;5.47;1.92;;;;;;;-146.18;100.00;67994.34;9988606;29;20151;-69
2021/04/17 13:04:43;;;;;;;6.68;1.85;;;;;;;-146.18;100.00;67994.34;9992145;29;20503;-67
2021/04/17 13:09:39;;;;;;;5.03;1.65;;;;;;;-146.18;100.00;67994.34;9999276;29;20056;-64
2021/04/17 13:14:35;;;;;;;7.72;1.70;;;;;;;-146.18;100.00;67994.34;9995963;29;20064;-71
2021/04/17 13:19:31;;;;;;;6.90;1.92;;;;;;;-146.18;100.00;67994.34;9995067;29;20059;-66
2021/04/17 13:24:27;;;;;;;8.43;2.28;;;;;;;-146.18;100.00;67994.34;9985064;29;20048;-67
2021/04/17 13:29:23;;;;;;;6.57;2.40;;;;;;;-146.18;100.00;67994.34;9991912;29;20426;-68
2021/04/17 13:34:19;;;;;;;5.13;1.80;;;;;;;-146.18;100.00;67994.34;9987492;29;20395;-67
2021/04/17 13:39:15;;;;;;;7.15;2.15;;;;;;;-146.18;100.00;67994.34;9989235;29;20044;-66
2021/04/17 13:44:11;;;;;;;4.57;2.08;;;;;;;-146.18;100.00;67994.34;9992968;29;20056;-67
2021/04/17 13:49:08;;;;;;;5.95;2.20;;;;;;;-146.18;100.00;67994.34;9982332;29;20056;-69
2021/04/17 13:54:04;;;;;;;6.28;2.20;;;;;;;-146.18;100.00;67994.34;9999976;29;20090;-65
2021/04/17 13:59:01;;;;;;;5.57;1.95;;;;;;;-146.18;100.00;67994.34;9987834;29;20104;-65
2021/04/17 14:03:57;;;;;;;9.40;2.38;;;;;;;-146.18;100.00;67994.34;9995158;29;20051;-67
2021/04/17 14:08:53;;;;;;;11.15;2.60;;;;;;;-146.18;100.00;67994.34;9992620;29;20052;-67
2021/04/17 14:13:49;;;;;;;5.88;1.92;;;;;;;-146.18;100.00;67994.34;9986274;29;20072;-68
2021/04/17 14:18:45;;;;;;;7.90;2.58;;;;;;;-146.18;100.00;67994.34;9995253;29;20055;-67
2021/04/17 14:23:42;;;;;;;6.70;1.98;;;;;;;-146.18;100.00;67994.34;9986100;29;20071;-67
2021/04/17 14:28:38;;;;;;;7.70;2.00;;;;;;;-146.18;100.00;67994.34;10000596;29;20052;-66
2021/04/17 14:33:35;;;;;;;9.63;2.50;;;;;;;-146.18;100.00;67994.34;9991612;29;20048;-65
2021/04/17 14:38:32;;;;;;;7.22;2.00;;;;;;;-146.18;100.00;67994.34;9986758;29;20048;-67
2021/04/17 14:43:30;;;;;;;12.85;4.70;;;;;;;-146.18;100.00;67994.34;9999095;29;20050;-66
2021/04/17 14:48:26;;;;;;;6.30;2.03;;;;;;;-146.18;100.00;67994.34;9993756;29;20096;-67
2021/04/17 14:53:42;;;;;;;6.50;2.10;;;;;;;-146.18;100.00;67994.34;9992472;29;20143;-66
2021/04/17 14:58:39;;;;;;;6.85;2.20;;;;;;;-146.18;100.00;67994.34;9986403;29;20051;-68
2021/04/17 15:03:36;;;;;;;7.70;2.38;;;;;;;-146.18;100.00;67994.34;9994604;29;20054;-70
2021/04/17 15:08:32;;;;;;;6.28;2.25;;;;;;;-146.18;100.00;67994.34;9997503;29;20471;-65
2021/04/17 15:13:28;;;;;;;7.18;2.97;;;;;;;-146.18;100.00;67994.34;9992601;29;20048;-64
2021/04/17 15:18:26;;;;;;;12.93;3.17;;;;;;;-146.18;100.00;67994.34;10001898;29;20399;-67
2021/04/17 15:23:23;;;;;;;5.75;2.28;;;;;;;-146.18;100.00;67994.34;9999723;29;20076;-68
2021/04/17 15:28:23;;;;;;;6.35;2.83;;;;;;;-146.18;100.00;67994.34;9987853;29;20040;-66
2021/04/17 15:33:20;;;;;;;8.25;2.40;;;;;;;-146.18;100.00;67994.34;9993192;29;20060;-68
2021/04/17 15:38:22;;;;;;;7.30;2.50;;;;;;;-146.18;100.00;67994.34;9998191;29;20051;-64
2021/04/17 15:43:18;;;;;;;5.75;2.10;;;;;;;-146.18;100.00;67994.34;10014365;29;20059;-66
2021/04/17 15:48:15;;;;;;;6.43;2.75;;;;;;;-146.18;100.00;67994.34;9993502;29;20056;-65
2021/04/17 15:53:11;;;;;;;6.05;2.67;;;;;;;-146.18;100.00;67994.34;9991024;29;20054;-65
2021/04/17 16:10:30;;;;;;;6.95;1.92;;;;;;;-146.18;100.00;67994.34;9994458;29;20052;-65
2021/04/17 16:19:16;;;;;;;10.40;2.45;;;;;;;-146.18;100.00;67994.34;9980941;29;20071;-65
2021/04/17 16:24:12;;;;;;;7.60;2.22;;;;;;;-146.18;100.00;67994.34;9992169;29;20403;-66
2021/04/17 16:29:11;;;;;;;8.25;1.70;;;;;;;-146.18;100.00;67994.34;9996950;29;20126;-66
2021/04/17 16:34:07;;;;;;;5.68;1.60;;;;;;;-146.18;100.00;67994.34;9989114;29;20458;-65
2021/04/17 16:39:08;;;;;;;6.40;2.17;;;;;;;-146.18;100.00;67994.34;9995740;29;20056;-65
2021/04/17 16:44:05;;;;;;;7.20;1.85;;;;;;;-146.18;100.00;67994.34;10001497;29;20055;-65
2021/04/17 16:49:01;;;;;;;6.30;2.15;;;;;;;-146.18;100.00;67994.34;9993110;29;20052;-66
2021/04/17 16:53:57;;;;;;;8.90;2.33;;;;;;;-146.18;100.00;67994.34;9984664;29;20055;-68
2021/04/17 16:58:54;;;;;;;8.07;2.45;;;;;;;-146.18;100.00;67994.34;9987039;29;20044;-67
2021/04/17 17:03:50;;;;;;;5.43;1.83;;;;;;;-146.18;100.00;67994.34;9991568;29;20103;-67
2021/04/17 17:08:48;;;;;;;9.63;2.00;;;;;;;-146.18;100.00;67994.34;9992550;29;20052;-66
2021/04/17 17:13:44;;;;;;;8.38;2.42;;;;;;;-146.18;100.00;67994.34;9988632;29;20143;-67
2021/04/17 17:18:40;;;;;;;6.13;1.98;;;;;;;-146.18;100.00;67994.34;9987621;29;20417;-67
2021/04/17 17:23:36;;;;;;;10.07;1.77;;;;;;;-146.18;100.00;67994.34;9992906;29;20063;-67
2021/04/17 17:28:32;;;;;;;9.95;1.85;;;;;;;-146.18;100.00;67994.34;10007174;29;20059;-68
2021/04/17 17:33:28;;;;;;;6.72;1.80;;;;;;;-146.18;100.00;67994.34;9990999;29;20119;-68
2021/04/17 17:38:24;;;;;;;7.57;1.90;;;;;;;-146.18;100.00;67994.34;9985179;29;20133;-67
2021/04/17 17:43:20;;;;;;;7.82;1.73;;;;;;;-146.18;100.00;67994.34;9985795;29;20080;-66
2021/04/17 17:48:17;;;;;;;7.93;2.20;;;;;;;-146.18;100.00;67994.34;10002336;29;20056;-66
2021/04/17 17:53:13;;;;;;;6.00;1.63;;;;;;;-146.18;100.00;67994.34;9995931;29;20415;-66
2021/04/17 17:58:09;;;;;;;5.63;1.85;;;;;;;-146.18;100.00;67994.34;9999378;29;20123;-67
2021/04/17 18:03:05;;;;;;;10.88;1.80;;;;;;;-146.18;100.00;67994.34;9998903;29;20095;-66
2021/04/17 18:08:02;;;;;;;8.38;1.75;;;;;;;-146.18;100.00;67994.34;9995607;29;20442;-67
2021/04/17 18:12:58;;;;;;;6.68;1.92;;;;;;;-146.18;100.00;67994.34;9993554;29;20408;-65
2021/04/17 18:17:54;;;;;;;8.32;1.98;;;;;;;-146.18;100.00;67994.34;9997378;29;20052;-66
2021/04/17 18:22:51;;;;;;;13.80;2.20;;;;;;;-146.18;100.00;67994.34;9972008;29;20052;-66
2021/04/17 18:27:47;;;;;;;7.60;2.30;;;;;;;-146.18;100.00;67994.34;9993828;29;20074;-66
2021/04/17 18:32:43;;;;;;;10.18;2.20;;;;;;;-146.18;100.00;67994.34;9996174;29;20053;-66
2021/04/17 18:37:39;;;;;;;8.00;2.22;;;;;;;-146.18;100.00;67994.34;9984270;29;20103;-66
2021/04/17 18:42:35;;;;;;;7.78;2.13;;;;;;;-146.18;100.00;67994.34;9990974;29;20098;-66
2021/04/17 18:47:31;;;;;;;6.57;2.20;;;;;;;-146.18;100.00;67994.34;9991742;29;20051;-67
2021/04/17 18:52:28;;;;;;;5.53;2.50;;;;;;;-146.18;100.00;67994.34;9991232;29;20050;-66
2021/04/17 18:57:24;;;;;;;6.82;2.90;;;;;;;-146.18;100.00;67994.34;9994190;29;20676;-67
2021/04/17 19:02:21;;;;;;;8.82;2.00;;;;;;;-146.18;100.00;67994.34;9987006;29;20051;-67
2021/04/17 19:07:17;;;;;;;10.82;2.85;;;;;;;-146.18;100.00;67994.34;10000283;29;20059;-64
2021/04/17 19:12:14;;;;;;;5.78;2.20;;;;;;;-146.18;100.00;67994.34;9994177;29;20062;-66
2021/04/17 19:17:10;;;;;;;10.85;2.88;;;;;;;-146.18;100.00;67994.34;9986009;29;20056;-66
2021/04/17 19:22:08;;;;;;;6.07;2.78;;;;;;;-146.18;100.00;67994.34;9993213;29;20511;-66
2021/04/17 19:27:05;;;;;;;10.15;2.65;;;;;;;-146.18;100.00;67994.34;9986305;29;20052;-67
2021/04/17 19:32:03;;;;;;;9.35;3.25;;;;;;;-146.18;100.00;67994.34;9991402;29;20063;-66
2021/04/17 19:37:04;;;;;;;8.95;2.95;;;;;;;-146.18;100.00;67994.34;9985494;29;20067;-66
2021/04/17 19:42:00;;;;;;;8.02;2.85;;;;;;;-146.18;100.00;67994.34;9982969;29;20056;-66
2021/04/17 19:46:56;;;;;;;10.63;2.75;;;;;;;-146.18;100.00;67994.34;9996932;29;20298;-66
2021/04/17 19:51:53;;;;;;;17.05;3.38;;;;;;;-146.18;100.00;67994.34;9997065;29;20066;-67
2021/04/17 19:56:49;;;;;;;15.20;2.80;;;;;;;-146.18;100.00;67994.34;9979060;29;20052;-66
2021/04/17 20:01:45;;;;;;;8.55;3.13;;;;;;;-146.18;100.00;67994.34;9979759;29;22230;-66
2021/04/17 20:06:41;;;;;;;6.95;3.40;;;;;;;-146.18;100.00;67994.34;9981751;29;20047;-65
2021/04/17 20:11:38;;;;;;;7.78;3.30;;;;;;;-146.18;100.00;67994.34;9979850;29;20522;-66
2021/04/17 20:16:34;;;;;;;8.93;3.55;;;;;;;-146.18;100.00;67994.34;9975787;29;20059;-67
2021/04/17 20:21:34;;;;;;;8.98;3.95;;;;;;;-146.18;100.00;67994.34;9975763;29;20141;-66
2021/04/17 20:26:36;;;;;;;8.85;3.80;;;;;;;-146.18;100.00;67994.34;9983078;29;20052;-66
2021/04/17 20:31:33;;;;;;;7.55;3.55;;;;;;;-146.18;100.00;67994.34;9992365;29;20499;-67
2021/04/17 20:36:32;;;;;;;8.10;2.90;;;;;;;-146.18;100.00;67994.34;9983690;29;20048;-67
2021/04/17 20:41:29;;;;;;;8.65;2.72;;;;;;;-146.18;100.00;67994.34;9984187;29;20133;-65
2021/04/17 20:46:26;;;;;;;11.50;3.50;;;;;;;-146.18;100.00;67994.34;9991141;29;20044;-67
2021/04/17 20:51:22;;;;;;;10.32;3.90;;;;;;;-146.18;100.00;67994.34;9987397;29;20566;-68
2021/04/17 20:56:20;;;;;;;13.07;4.07;;;;;;;-146.18;100.00;67994.34;9978346;29;20071;-67
2021/04/17 21:01:16;;;;;;;6.72;3.25;;;;;;;-146.18;100.00;67994.34;9989412;29;20052;-68
2021/04/17 21:06:12;;;;;;;8.60;3.05;;;;;;;-146.18;100.00;67994.34;9980851;29;20055;-68
2021/04/17 21:11:08;;;;;;;8.23;3.38;;;;;;;-146.18;100.00;67994.34;9983292;29;20088;-67
2021/04/17 21:16:06;;;;;;;11.02;3.17;;;;;;;-146.18;100.00;67994.34;9980791;29;20087;-66
2021/04/17 21:21:03;;;;;;;8.50;3.03;;;;;;;-146.18;100.00;67994.34;9981287;29;20048;-67
2021/04/17 21:25:59;;;;;;;11.02;3.30;;;;;;;-146.18;100.00;67994.34;9976837;29;20131;-66
2021/04/17 21:30:55;;;;;;;10.60;3.47;;;;;;;-146.18;100.00;67994.34;9990662;29;20052;-67
2021/04/17 21:35:54;;;;;;;10.50;3.33;;;;;;;-146.18;100.00;67994.34;9995734;29;20333;-67
2021/04/17 21:40:50;;;;;;;10.05;3.22;;;;;;;-146.18;100.00;67994.34;10000408;29;20123;-65
2021/04/17 21:45:46;;;;;;;9.98;3.95;;;;;;;-146.18;100.00;67994.34;9997327;29;20051;-65
2021/04/17 21:50:42;;;;;;;10.95;3.60;;;;;;;-146.18;100.00;67994.34;9995862;29;20049;-64
2021/04/17 21:55:39;;;;;;;7.97;3.13;;;;;;;-146.18;100.00;67994.34;9988897;29;20052;-63
2021/04/17 22:00:50;;;;;;;13.48;4.13;;;;;;;-146.18;100.00;67994.34;9989536;29;20119;-64
2021/04/17 22:05:47;;;;;;;11.13;3.58;;;;;;;-146.18;100.00;67994.34;9993597;29;20068;-65
2021/04/17 22:10:44;;;;;;;10.48;3.33;;;;;;;-146.18;100.00;67994.34;9980547;29;20199;-69
2021/04/17 22:15:41;;;;;;;9.88;3.60;;;;;;;-146.18;100.00;67994.34;9993568;29;20624;-69
2021/04/17 22:20:37;;;;;;;10.40;3.53;;;;;;;-146.18;100.00;67994.34;9985562;29;20119;-69
2021/04/17 22:25:35;;;;;;;9.13;3.10;;;;;;;-146.18;100.00;67994.34;9994870;29;20532;-68
2021/04/17 22:30:31;;;;;;;10.95;4.00;;;;;;;-146.18;100.00;67994.34;10011108;29;20054;-68
2021/04/17 22:35:27;;;;;;;15.63;4.00;;;;;;;-146.18;100.00;67994.34;10014399;29;20578;-68
2021/04/17 22:40:25;;;;;;;11.80;3.70;;;;;;;-146.18;100.00;67994.34;10002483;29;20097;-68
2021/04/17 22:45:22;;;;;;;9.40;3.70;;;;;;;-146.18;100.00;67994.34;9995974;29;20103;-69